Time;durP1;ratioP1;P1;durP2;ratioP2;P2;SDS_P1;SDS_P2;PMS_P1;PMS_P2;Temp;Humidity;BMP_temperature;BMP_pressure;BME280_temperature;BME280_humidity;BME280_pressure;Samples;Min_cycle;Max_cycle;Signal;HPM_P1;HPM_P2
2022/01/11 00:00:00;;;;;;;17.13;8.27;;;;;;;1.62;100.00;99912.56;4095144;28;20096;-72
2022/01/11 00:02:01;;;;;;;18.48;8.02;;;;;;;1.62;100.00;99907.13;4090322;28;20051;-72
2022/01/11 00:04:01;;;;;;;17.45;8.25;;;;;;;1.64;100.00;99909.56;4094098;28;20358;-72
2022/01/11 00:06:16;;;;;;;15.80;8.27;;;;;;;1.63;100.00;99918.84;4092728;28;20054;-72
2022/01/11 00:08:19;;;;;;;14.93;7.82;;;;;;;1.61;100.00;99910.94;4089387;28;20061;-72
2022/01/11 00:10:29;;;;;;;14.23;7.53;;;;;;;1.61;100.00;99919.13;4095547;28;20259;-72
2022/01/11 00:12:30;;;;;;;14.05;7.55;;;;;;;1.61;100.00;99910.13;4091957;28;20055;-72
2022/01/11 00:14:30;;;;;;;19.30;8.68;;;;;;;1.65;100.00;99922.09;4091804;28;20067;-72
2022/01/11 00:16:30;;;;;;;15.85;7.40;;;;;;;1.61;100.00;99921.03;4091565;28;20071;-72
2022/01/11 00:18:31;;;;;;;13.55;7.55;;;;;;;1.62;100.00;99925.41;4091306;28;20047;-72
2022/01/11 00:20:32;;;;;;;20.27;9.18;;;;;;;1.61;100.00;99924.59;4092623;28;20699;-72
2022/01/11 00:22:36;;;;;;;15.57;7.78;;;;;;;1.61;100.00;99926.50;4091941;28;20047;-72
2022/01/11 00:24:38;;;;;;;14.18;6.97;;;;;;;1.61;100.00;99915.59;4092301;28;20104;-72
2022/01/11 00:26:39;;;;;;;17.95;7.95;;;;;;;1.62;100.00;99923.47;4090298;28;20411;-72
2022/01/11 00:28:39;;;;;;;17.77;7.78;;;;;;;1.65;100.00;99922.09;4092199;28;20478;-72
2022/01/11 00:30:42;;;;;;;16.15;7.97;;;;;;;1.65;100.00;99917.44;4091163;28;20042;-72
2022/01/11 00:32:48;;;;;;;;;;;;;;;1.68;100.00;99913.34;4091562;28;20050;-72
2022/01/11 00:34:51;;;;;;;19.27;7.63;;;;;;;1.69;100.00;99915.78;4092802;28;19929;-72
2022/01/11 00:36:51;;;;;;;14.25;6.70;;;;;;;1.67;100.00;99909.00;4089919;28;20055;-72
2022/01/11 00:38:51;;;;;;;15.73;7.80;;;;;;;1.64;100.00;99915.00;4090454;28;20055;-72
2022/01/11 00:40:58;;;;;;;15.00;8.07;;;;;;;1.64;100.00;99921.28;4093466;28;20050;-72
2022/01/11 00:43:00;;;;;;;17.63;7.90;;;;;;;1.63;100.00;99925.09;4091937;28;20636;-72
2022/01/11 00:45:02;;;;;;;18.35;8.75;;;;;;;1.62;100.00;99923.47;4090619;28;20299;-72
2022/01/11 00:47:03;;;;;;;;;;;;;;;1.60;100.00;99925.69;4092334;28;20035;-72
2022/01/11 00:49:03;;;;;;;16.55;7.57;;;;;;;1.58;100.00;99925.16;4090281;28;19941;-72
2022/01/11 00:51:03;;;;;;;16.67;8.25;;;;;;;1.56;100.00;99930.06;4091282;28;20043;-72
2022/01/11 00:53:05;;;;;;;14.85;8.05;;;;;;;1.51;100.00;99929.31;4091925;28;20105;-72
2022/01/11 00:55:06;;;;;;;15.10;7.68;;;;;;;1.52;100.00;99939.94;4090242;28;20050;-72
2022/01/11 00:57:07;;;;;;;17.35;6.68;;;;;;;1.51;100.00;99932.84;4090755;28;20364;-72
2022/01/11 00:59:07;;;;;;;13.32;6.88;;;;;;;1.50;100.00;99942.13;4092752;28;20089;-72
2022/01/11 01:01:08;;;;;;;11.98;6.75;;;;;;;1.49;100.00;99937.78;4106653;28;20048;-72
2022/01/11 01:03:08;;;;;;;16.05;6.95;;;;;;;1.48;100.00;99936.13;4090140;28;20035;-72
2022/01/11 01:05:09;;;;;;;15.55;7.55;;;;;;;1.46;100.00;99934.78;4091694;28;20530;-72
2022/01/11 01:07:09;;;;;;;17.85;7.53;;;;;;;1.45;100.00;99941.34;4088122;28;20513;-72
2022/01/11 01:09:09;;;;;;;12.85;6.80;;;;;;;1.44;100.00;99950.63;4090725;28;20131;-72
2022/01/11 01:11:10;;;;;;;14.35;7.72;;;;;;;1.40;100.00;99945.72;4089349;28;20292;-72
2022/01/11 01:13:14;;;;;;;15.60;8.48;;;;;;;1.38;100.00;99938.91;4093566;28;20039;-72
2022/01/11 01:15:14;;;;;;;16.33;8.38;;;;;;;1.39;100.00;99954.19;4099895;28;20050;-72
2022/01/11 01:17:15;;;;;;;16.60;8.70;;;;;;;1.37;100.00;99946.28;4087822;28;20039;-72
2022/01/11 01:19:15;;;;;;;13.98;7.22;;;;;;;1.38;100.00;99949.81;4105227;28;20154;-72
2022/01/11 01:21:16;;;;;;;13.32;6.82;;;;;;;1.36;100.00;99944.66;4096343;28;20139;-72
2022/01/11 01:23:17;;;;;;;14.30;7.72;;;;;;;1.37;100.00;99946.28;4089585;28;20058;-72
2022/01/11 01:25:20;;;;;;;15.30;7.85;;;;;;;1.37;100.00;99946.28;4088891;28;20047;-72
2022/01/11 01:27:20;;;;;;;12.55;6.72;;;;;;;1.37;100.00;99946.28;4091176;28;20062;-72
2022/01/11 01:29:21;;;;;;;24.55;11.77;;;;;;;1.42;100.00;99948.19;4090105;28;20055;-72
2022/01/11 01:31:21;;;;;;;21.63;10.55;;;;;;;1.44;100.00;99951.44;4089909;28;20051;-72
2022/01/11 01:33:21;;;;;;;21.85;10.20;;;;;;;1.43;100.00;99952.53;4088422;28;20108;-72
2022/01/11 01:35:25;;;;;;;16.63;8.55;;;;;;;1.42;100.00;99952.81;4095118;28;20082;-72
2022/01/11 01:37:26;;;;;;;16.67;9.32;;;;;;;1.39;100.00;99956.91;4087060;28;20422;-72
2022/01/11 01:39:27;;;;;;;17.15;9.43;;;;;;;1.38;100.00;99961.53;4088427;28;20054;-72
2022/01/11 01:41:27;;;;;;;15.85;8.90;;;;;;;1.39;100.00;99954.19;4088800;28;20047;-72
2022/01/11 01:43:28;;;;;;;18.80;10.07;;;;;;;1.36;100.00;99958.28;4088452;28;20078;-72
2022/01/11 01:45:29;;;;;;;14.07;8.63;;;;;;;1.37;100.00;99954.47;4087748;28;20051;-72
2022/01/11 01:47:30;;;;;;;14.65;7.63;;;;;;;1.38;100.00;99947.91;4090427;28;20396;-72
2022/01/11 01:49:33;;;;;;;15.48;7.97;;;;;;;1.40;100.00;99953.06;4093337;28;20050;-72
2022/01/11 01:51:33;;;;;;;16.48;7.55;;;;;;;1.39;100.00;99956.91;4087291;28;20380;-72
2022/01/11 01:53:37;;;;;;;15.70;8.25;;;;;;;1.40;100.00;99962.06;4090130;28;20140;-72
2022/01/11 01:55:43;;;;;;;15.63;8.70;;;;;;;1.37;100.00;99953.66;4100863;28;20047;-72
2022/01/11 01:57:43;;;;;;;13.95;8.00;;;;;;;1.34;100.00;99963.22;4091694;28;20055;-72
2022/01/11 01:59:44;;;;;;;15.13;8.00;;;;;;;1.34;100.00;99962.41;4090150;28;20070;-72
2022/01/11 02:01:47;;;;;;;14.50;8.13;;;;;;;1.33;100.00;99967.03;4088050;28;20454;-72
2022/01/11 02:03:47;;;;;;;13.90;8.27;;;;;;;1.30;100.00;99950.41;4094500;28;20050;-72
2022/01/11 02:05:47;;;;;;;12.98;7.95;;;;;;;1.29;100.00;99952.31;4089596;28;20055;-72
2022/01/11 02:07:48;;;;;;;13.35;7.75;;;;;;;1.30;100.00;99953.97;4086820;28;20126;-72
2022/01/11 02:09:48;;;;;;;14.25;7.57;;;;;;;1.34;100.00;99965.94;4089813;28;20047;-72
2022/01/11 02:11:49;;;;;;;16.67;7.70;;;;;;;1.34;100.00;99965.13;4088824;28;20089;-72
2022/01/11 02:13:50;;;;;;;14.13;7.35;;;;;;;1.33;100.00;99966.22;4092221;28;20047;-72
2022/01/11 02:15:51;;;;;;;15.50;7.88;;;;;;;1.32;100.00;99970.84;4089121;28;20051;-72
2022/01/11 02:17:52;;;;;;;14.48;7.40;;;;;;;1.33;100.00;99958.88;4087328;28;20124;-72
2022/01/11 02:19:55;;;;;;;14.40;7.78;;;;;;;1.32;100.00;99961.84;4088568;28;20054;-72
2022/01/11 02:21:56;;;;;;;18.67;8.48;;;;;;;1.34;100.00;99968.69;4088051;28;20059;-72
2022/01/11 02:23:59;;;;;;;17.67;7.82;;;;;;;1.31;100.00;99971.13;4087818;28;20050;-72
2022/01/11 02:26:00;;;;;;;20.45;8.00;;;;;;;1.31;100.00;99969.22;4087722;28;20523;-72
2022/01/11 02:28:00;;;;;;;16.05;7.65;;;;;;;1.28;100.00;99977.16;4086395;28;20058;-72
2022/01/11 02:30:01;;;;;;;15.77;7.22;;;;;;;1.26;100.00;99979.34;4088027;28;20047;-72
2022/01/11 02:32:02;;;;;;;25.27;9.38;;;;;;;1.25;100.00;99975.81;4104422;28;20111;-72
2022/01/11 02:34:03;;;;;;;21.88;9.55;;;;;;;1.22;100.00;99981.81;4092675;28;20177;-72
2022/01/11 02:36:07;;;;;;;17.33;8.10;;;;;;;1.24;100.00;99973.34;4088995;28;20043;-71
2022/01/11 02:38:07;;;;;;;17.73;9.13;;;;;;;1.24;100.00;99976.06;4090211;28;20034;-73
2022/01/11 02:40:08;;;;;;;14.88;8.05;;;;;;;1.21;100.00;99973.91;4090051;28;20034;-72
2022/01/11 02:42:09;;;;;;;16.08;8.13;;;;;;;1.20;100.00;99978.56;4090538;28;20061;-72
2022/01/11 02:44:09;;;;;;;15.73;8.20;;;;;;;1.17;100.00;99976.41;4094334;28;20035;-72
2022/01/11 02:46:10;;;;;;;17.25;8.38;;;;;;;1.21;100.00;99974.72;4086741;28;20055;-72
2022/01/11 02:48:10;;;;;;;15.18;8.05;;;;;;;1.21;100.00;99976.63;4087075;28;20035;-72
2022/01/11 02:50:11;;;;;;;23.05;9.63;;;;;;;1.21;100.00;99984.81;4088297;28;20620;-72
2022/01/11 02:52:12;;;;;;;17.17;8.93;;;;;;;1.21;100.00;99987.53;4088714;28;20213;-72
2022/01/11 02:54:12;;;;;;;13.45;8.57;;;;;;;1.23;100.00;99979.91;4088045;28;20824;-72
2022/01/11 02:56:13;;;;;;;17.58;8.30;;;;;;;1.22;100.00;99975.53;4087451;28;20043;-72
2022/01/11 02:58:14;;;;;;;17.67;8.05;;;;;;;1.26;100.00;99979.34;4086496;28;20088;-72
2022/01/11 03:00:17;;;;;;;18.20;8.88;;;;;;;1.25;100.00;99986.72;4087069;28;20492;-72
2022/01/11 03:02:18;;;;;;;14.13;7.43;;;;;;;1.24;100.00;99979.63;4089103;28;20039;-72
2022/01/11 03:04:18;;;;;;;14.38;8.00;;;;;;;1.24;100.00;99982.38;4092316;28;20045;-72
2022/01/11 03:06:18;;;;;;;16.60;8.70;;;;;;;1.27;100.00;99991.88;4088579;28;20118;-72
2022/01/11 03:08:20;;;;;;;18.95;8.98;;;;;;;1.25;100.00;99988.63;4087458;28;20041;-72
2022/01/11 03:10:32;;;;;;;15.82;7.97;;;;;;;1.25;100.00;99999.53;4092744;28;20502;-72
2022/01/11 03:12:33;;;;;;;15.95;7.68;;;;;;;1.26;100.00;99993.81;4091810;28;20101;-72
2022/01/11 03:14:33;;;;;;;17.70;8.95;;;;;;;1.27;100.00;99997.34;4086673;28;20476;-72
2022/01/11 03:16:34;;;;;;;19.77;7.97;;;;;;;1.23;100.00;99997.06;4086942;28;20047;-72
2022/01/11 03:18:34;;;;;;;15.07;8.13;;;;;;;1.22;100.00;99994.63;4086642;28;20402;-72
2022/01/11 03:20:36;;;;;;;16.35;8.68;;;;;;;1.23;100.00;99994.34;4087578;28;20403;-72
2022/01/11 03:22:36;;;;;;;17.37;7.77;;;;;;;1.24;100.00;99996.00;4086872;28;20865;-72
2022/01/11 03:24:38;;;;;;;14.90;8.45;;;;;;;1.22;100.00;100011.81;4087079;28;20267;-72
2022/01/11 03:26:38;;;;;;;17.00;7.80;;;;;;;1.23;100.00;100018.06;4085989;28;20047;-72
2022/01/11 03:28:39;;;;;;;18.58;8.05;;;;;;;1.18;100.00;100021.66;4086321;28;20228;-72
2022/01/11 03:30:39;;;;;;;16.05;8.40;;;;;;;1.20;100.00;100010.44;4088412;28;20105;-72
2022/01/11 03:32:40;;;;;;;23.77;8.85;;;;;;;1.19;100.00;100017.00;4086486;28;20047;-72
2022/01/11 03:34:41;;;;;;;16.15;8.18;;;;;;;1.19;100.00;100012.38;4089968;28;20679;-72
2022/01/11 03:36:42;;;;;;;17.40;8.68;;;;;;;1.17;100.00;100019.19;4090057;28;20890;-72
2022/01/11 03:38:42;;;;;;;16.02;8.38;;;;;;;1.17;100.00;100027.38;4091562;28;20158;-72
2022/01/11 03:40:43;;;;;;;19.80;8.60;;;;;;;1.15;100.00;100024.09;4093925;28;20042;-72
2022/01/11 03:42:45;;;;;;;12.73;7.95;;;;;;;1.14;100.00;100026.00;4090006;28;20517;-72
2022/01/11 03:44:45;;;;;;;16.10;8.65;;;;;;;1.11;100.00;100024.66;4090210;28;20055;-72
2022/01/11 03:46:46;;;;;;;19.20;8.35;;;;;;;1.10;100.00;100028.50;4088085;28;20105;-72
2022/01/11 03:48:46;;;;;;;17.80;8.05;;;;;;;1.09;100.00;100026.84;4090551;28;20142;-72
2022/01/11 03:50:52;;;;;;;16.38;8.75;;;;;;;1.11;100.00;100030.13;4090154;28;20544;-72
2022/01/11 03:53:08;;;;;;;16.50;8.60;;;;;;;1.12;100.00;100026.28;4090613;28;20055;-72
2022/01/11 03:55:12;;;;;;;15.80;8.68;;;;;;;1.06;100.00;100026.56;4089010;28;20322;-72
2022/01/11 03:57:13;;;;;;;16.02;8.40;;;;;;;1.10;100.00;100035.84;4089200;28;20142;-72
2022/01/11 03:59:14;;;;;;;18.08;8.73;;;;;;;1.13;100.00;100033.38;4089821;28;20085;-72
2022/01/11 04:01:14;;;;;;;13.45;8.15;;;;;;;1.17;100.00;100039.09;4091291;28;20051;-72
2022/01/11 04:03:15;;;;;;;18.23;9.15;;;;;;;1.18;100.00;100039.91;4088799;28;20466;-72
2022/01/11 04:05:15;;;;;;;17.20;9.95;;;;;;;1.15;100.00;100044.00;4089265;28;20051;-72
2022/01/11 04:07:16;;;;;;;18.55;9.48;;;;;;;1.12;100.00;100044.56;4088508;28;20078;-72
2022/01/11 04:09:16;;;;;;;15.77;8.45;;;;;;;1.13;100.00;100041.53;4094433;28;21097;-72
2022/01/11 04:11:16;;;;;;;16.38;8.20;;;;;;;1.12;100.00;100044.56;4090486;28;20381;-72
2022/01/11 04:13:17;;;;;;;21.05;9.60;;;;;;;1.13;100.00;100043.47;4089274;28;20086;-72
2022/01/11 04:15:17;;;;;;;16.95;9.55;;;;;;;1.13;100.00;100059.81;4091224;28;20059;-72
2022/01/11 04:17:18;;;;;;;22.85;9.98;;;;;;;1.15;100.00;100054.91;4088139;28;20437;-72
2022/01/11 04:19:20;;;;;;;19.48;10.38;;;;;;;1.17;100.00;100057.38;4089190;28;20242;-72
2022/01/11 04:21:20;;;;;;;20.40;9.60;;;;;;;1.15;100.00;100059.53;4089271;28;20525;-72
2022/01/11 04:23:20;;;;;;;17.27;9.35;;;;;;;1.16;100.00;100064.72;4089603;28;20232;-72
2022/01/11 04:25:21;;;;;;;18.25;8.88;;;;;;;1.13;100.00;100068.81;4089435;28;20572;-72
2022/01/11 04:27:21;;;;;;;16.23;9.73;;;;;;;1.13;100.00;100059.81;4087800;28;20050;-72
2022/01/11 04:29:22;;;;;;;19.10;8.93;;;;;;;1.13;100.00;100062.53;4089114;28;20441;-72
2022/01/11 04:31:22;;;;;;;21.38;10.32;;;;;;;1.12;100.00;100063.63;4088939;28;20055;-72
2022/01/11 04:33:24;;;;;;;16.50;9.50;;;;;;;1.13;100.00;100071.53;4091366;28;20052;-72
2022/01/11 04:35:24;;;;;;;20.38;9.85;;;;;;;1.10;100.00;100066.66;4089775;28;20092;-72
2022/01/11 04:37:24;;;;;;;21.13;10.48;;;;;;;1.09;100.00;100073.19;4089051;28;20566;-72
2022/01/11 04:39:25;;;;;;;16.80;8.57;;;;;;;1.06;100.00;100071.00;4089540;28;20399;-72
2022/01/11 04:41:26;;;;;;;21.83;10.25;;;;;;;1.06;100.00;100072.91;4088837;28;20051;-72
2022/01/11 04:43:26;;;;;;;18.38;9.55;;;;;;;1.07;100.00;100069.91;4091226;28;20051;-72
2022/01/11 04:45:27;;;;;;;20.85;9.73;;;;;;;1.04;100.00;100070.47;4092547;28;20367;-72
2022/01/11 04:47:27;;;;;;;18.23;9.18;;;;;;;1.05;100.00;100069.38;4089717;28;20081;-72
2022/01/11 04:49:27;;;;;;;17.58;8.52;;;;;;;1.04;100.00;100065.03;4094844;28;20138;-72
2022/01/11 04:51:28;;;;;;;14.18;7.95;;;;;;;1.01;100.00;100071.03;4092952;28;20082;-72
2022/01/11 04:53:28;;;;;;;16.67;8.43;;;;;;;1.01;100.00;100067.50;4092929;28;20040;-72
2022/01/11 04:55:29;;;;;;;21.95;10.55;;;;;;;1.01;100.00;100065.59;4093714;28;20054;-72
2022/01/11 04:57:29;;;;;;;15.68;8.57;;;;;;;1.01;100.00;100070.22;4092494;28;20724;-72
2022/01/11 04:59:30;;;;;;;19.52;9.45;;;;;;;1.00;100.00;100060.41;4090592;28;20051;-72
2022/01/11 05:01:31;;;;;;;16.35;9.05;;;;;;;1.00;100.00;100063.97;4089405;28;20078;-72
2022/01/11 05:03:31;;;;;;;19.23;9.25;;;;;;;1.01;100.00;100072.94;4092144;28;20055;-72
2022/01/11 05:05:32;;;;;;;20.67;10.23;;;;;;;1.00;100.00;100069.41;4089203;28;20047;-72
2022/01/11 05:07:33;;;;;;;23.17;11.27;;;;;;;1.00;100.00;100072.13;4090477;28;20126;-72
2022/01/11 05:09:33;;;;;;;20.23;9.38;;;;;;;1.01;100.00;100073.75;4095062;28;20043;-72
2022/01/11 05:11:33;;;;;;;19.52;10.48;;;;;;;1.04;100.00;100075.09;4089738;28;20035;-72
2022/01/11 05:13:34;;;;;;;18.95;9.23;;;;;;;1.03;100.00;100077.03;4091755;28;20134;-72
2022/01/11 05:15:35;;;;;;;20.90;10.35;;;;;;;1.07;100.00;100074.53;4092733;28;20736;-72
2022/01/11 05:17:36;;;;;;;23.98;10.63;;;;;;;1.09;100.00;100083.28;4088969;28;20130;-72
2022/01/11 05:19:36;;;;;;;25.63;10.20;;;;;;;1.06;100.00;100072.91;4091166;28;20051;-72
2022/01/11 05:21:37;;;;;;;21.27;9.75;;;;;;;1.08;100.00;100081.66;4091001;28;20047;-72
2022/01/11 05:23:37;;;;;;;27.17;12.15;;;;;;;1.08;100.00;100079.75;4089956;28;20062;-72
2022/01/11 05:25:38;;;;;;;19.95;10.65;;;;;;;1.07;100.00;100080.00;4091823;28;20051;-72
2022/01/11 05:27:38;;;;;;;23.30;10.77;;;;;;;1.06;100.00;100084.63;4090573;28;20039;-72
2022/01/11 05:29:38;;;;;;;21.67;11.20;;;;;;;1.09;100.00;100089.56;4090186;28;20051;-72
2022/01/11 05:31:39;;;;;;;22.63;11.50;;;;;;;1.05;100.00;100091.19;4091277;28;20074;-72
2022/01/11 05:33:39;;;;;;;25.85;11.63;;;;;;;0.99;100.00;100097.72;4090379;28;20301;-71
2022/01/11 05:35:40;;;;;;;26.98;12.45;;;;;;;0.96;100.00;100092.03;4090440;28;20090;-72
2022/01/11 05:37:41;;;;;;;25.35;11.75;;;;;;;0.94;100.00;100097.75;4090669;28;20404;-72
2022/01/11 05:39:42;;;;;;;24.55;12.20;;;;;;;0.93;100.00;100101.56;4088212;28;20050;-72
2022/01/11 05:41:42;;;;;;;25.02;11.18;;;;;;;0.94;100.00;100102.41;4091491;28;20047;-72
2022/01/11 05:43:43;;;;;;;24.13;11.27;;;;;;;0.93;100.00;100101.56;4091627;28;20717;-72
2022/01/11 05:45:43;;;;;;;24.85;11.07;;;;;;;0.91;100.00;100103.78;4090160;28;20230;-72
2022/01/11 05:47:44;;;;;;;23.55;11.18;;;;;;;0.94;100.00;100105.13;4090119;28;20410;-72
2022/01/11 05:49:45;;;;;;;24.85;11.77;;;;;;;0.93;100.00;100111.66;4090652;28;20468;-72
2022/01/11 05:51:45;;;;;;;29.40;11.93;;;;;;;0.93;100.00;100111.66;4090622;28;20049;-72
2022/01/11 05:53:46;;;;;;;28.55;12.68;;;;;;;0.93;100.00;100108.94;4087641;28;20353;-72
2022/01/11 05:55:46;;;;;;;22.88;11.23;;;;;;;0.96;100.00;100111.91;4087870;28;20058;-72
2022/01/11 05:57:47;;;;;;;22.95;11.30;;;;;;;0.96;100.00;100114.66;4084593;28;20408;-72
2022/01/11 05:59:48;;;;;;;24.98;10.88;;;;;;;0.97;100.00;100110.00;4085072;28;20043;-72
2022/01/11 06:01:49;;;;;;;20.30;10.77;;;;;;;0.95;100.00;100112.19;4088636;28;20070;-72
2022/01/11 06:03:49;;;;;;;22.70;11.40;;;;;;;0.96;100.00;100106.47;4088096;28;20314;-72
2022/01/11 06:05:50;;;;;;;21.35;10.80;;;;;;;0.93;100.00;100109.75;4087469;28;20147;-72
2022/01/11 06:07:51;;;;;;;20.02;11.07;;;;;;;0.95;100.00;100114.91;4086772;28;20486;-72
2022/01/11 06:09:51;;;;;;;24.45;11.30;;;;;;;0.97;100.00;100112.72;4097591;28;20082;-72
2022/01/11 06:11:56;;;;;;;21.65;10.18;;;;;;;0.95;100.00;100115.75;4087721;28;20170;-72
2022/01/11 06:13:56;;;;;;;25.75;10.68;;;;;;;0.96;100.00;100113.81;4094119;28;20131;-72
2022/01/11 06:15:56;;;;;;;20.42;10.48;;;;;;;0.96;100.00;100111.91;4095331;28;20134;-72
2022/01/11 06:17:57;;;;;;;21.17;9.68;;;;;;;0.96;100.00;100113.81;4090524;28;20142;-72
2022/01/11 06:19:57;;;;;;;21.33;10.60;;;;;;;0.97;100.00;100127.19;4088256;28;20411;-72
2022/01/11 06:21:58;;;;;;;23.65;11.40;;;;;;;0.98;100.00;100120.63;4091919;28;20057;-72
2022/01/11 06:23:58;;;;;;;23.40;10.63;;;;;;;0.96;100.00;100122.81;4090394;28;20646;-72
2022/01/11 06:25:59;;;;;;;22.63;9.88;;;;;;;0.98;100.00;100134.25;4061809;28;20179;-72
2022/01/11 06:27:59;;;;;;;19.80;10.02;;;;;;;0.99;100.00;100124.16;4087596;28;20325;-72
2022/01/11 06:30:00;;;;;;;21.75;9.45;;;;;;;0.99;100.00;100130.44;4093836;28;20051;-72
2022/01/11 06:32:01;;;;;;;20.92;8.85;;;;;;;0.97;100.00;100127.19;4096997;28;20499;-72
2022/01/11 06:34:03;;;;;;;26.00;10.30;;;;;;;1.01;100.00;100132.91;4094857;28;20053;-72
2022/01/11 06:36:09;;;;;;;23.57;11.60;;;;;;;0.99;100.00;100133.16;4108558;28;20040;-72
2022/01/11 06:38:10;;;;;;;24.98;11.10;;;;;;;0.98;100.00;100138.88;4090740;28;20028;-72
2022/01/11 06:40:12;;;;;;;28.95;13.05;;;;;;;0.98;100.00;100136.97;4086969;28;20035;-72
2022/01/11 06:42:12;;;;;;;27.33;12.77;;;;;;;0.97;100.00;100138.06;4088165;28;20559;-72
2022/01/11 06:44:13;;;;;;;30.10;13.02;;;;;;;0.96;100.00;100143.81;4088774;28;20135;-72
2022/01/11 06:46:13;;;;;;;26.20;13.43;;;;;;;0.97;100.00;100148.16;4173476;28;20312;-72
2022/01/11 06:48:14;;;;;;;25.73;13.40;;;;;;;0.94;100.00;100144.09;4087828;28;20073;-72
2022/01/11 06:50:14;;;;;;;24.52;12.70;;;;;;;0.96;100.00;100147.34;4088160;28;20705;-72
2022/01/11 06:52:14;;;;;;;26.83;11.65;;;;;;;0.95;100.00;100142.19;4088716;28;20479;-72
2022/01/11 06:54:15;;;;;;;20.70;12.32;;;;;;;0.98;100.00;100145.16;4091316;28;20093;-72
2022/01/11 06:56:17;;;;;;;25.90;12.75;;;;;;;0.98;100.00;100150.59;4087615;28;20031;-72
2022/01/11 06:58:18;;;;;;;21.92;12.15;;;;;;;1.01;100.00;100152.81;4090771;28;20035;-72
2022/01/11 07:00:19;;;;;;;26.73;11.23;;;;;;;1.02;100.00;100146.25;4088423;28;20035;-72
2022/01/11 07:02:19;;;;;;;19.25;10.43;;;;;;;1.06;100.00;100151.97;4088902;28;20461;-72
2022/01/11 07:04:19;;;;;;;24.70;11.50;;;;;;;1.03;100.00;100150.63;4087741;28;20134;-72
2022/01/11 07:06:20;;;;;;;26.48;12.55;;;;;;;1.02;100.00;100150.91;4088170;28;20590;-72
2022/01/11 07:08:20;;;;;;;27.42;13.23;;;;;;;1.04;100.00;100159.59;4088174;28;20043;-72
2022/01/11 07:10:21;;;;;;;24.30;12.55;;;;;;;1.01;100.00;100158.25;4093289;28;20047;-72
2022/01/11 07:12:21;;;;;;;21.60;11.13;;;;;;;1.01;100.00;100165.63;4090850;28;20413;-72
2022/01/11 07:14:22;;;;;;;24.52;11.70;;;;;;;0.98;100.00;100163.41;4089552;28;20051;-72
2022/01/11 07:16:22;;;;;;;25.77;11.63;;;;;;;0.97;100.00;100168.06;4091151;28;20309;-72
2022/01/11 07:18:22;;;;;;;21.70;10.70;;;;;;;0.97;100.00;100169.97;4094358;28;20055;-72
2022/01/11 07:20:23;;;;;;;23.92;10.90;;;;;;;0.96;100.00;100165.63;4090362;28;20255;-72
2022/01/11 07:22:23;;;;;;;21.58;10.60;;;;;;;0.95;100.00;100170.25;4091163;28;20058;-71
2022/01/11 07:24:25;;;;;;;27.05;11.80;;;;;;;0.93;100.00;100180.63;4090567;28;20058;-72
2022/01/11 07:26:25;;;;;;;25.85;11.45;;;;;;;0.93;100.00;100177.88;4090273;28;20048;-72
2022/01/11 07:28:26;;;;;;;33.33;16.30;;;;;;;0.92;100.00;100186.34;4092252;28;20049;-72
2022/01/11 07:30:26;;;;;;;25.52;13.93;;;;;;;0.90;100.00;100186.59;4090728;28;20169;-72
2022/01/11 07:32:27;;;;;;;22.85;12.30;;;;;;;0.90;100.00;100199.41;4090134;28;20069;-72
2022/01/11 07:34:27;;;;;;;22.42;12.80;;;;;;;0.90;100.00;100199.41;4090587;28;20051;-72
2022/01/11 07:36:28;;;;;;;26.00;13.60;;;;;;;0.92;100.00;100197.25;4093208;28;20185;-72
2022/01/11 07:38:28;;;;;;;26.38;12.90;;;;;;;0.93;100.00;100202.41;4089566;28;20132;-72
2022/01/11 07:40:28;;;;;;;31.38;13.70;;;;;;;0.93;100.00;100202.41;4091380;28;20051;-72
2022/01/11 07:42:29;;;;;;;31.52;13.18;;;;;;;0.89;100.00;100195.84;4097275;28;20043;-72
2022/01/11 07:44:31;;;;;;;25.88;12.13;;;;;;;0.93;100.00;100196.16;4091558;28;20424;-72
2022/01/11 07:46:31;;;;;;;25.95;12.32;;;;;;;0.96;100.00;100203.78;4089689;28;20043;-72
2022/01/11 07:48:31;;;;;;;26.10;11.13;;;;;;;1.00;100.00;100202.97;4089528;28;20043;-72
2022/01/11 07:50:32;;;;;;;22.48;11.60;;;;;;;1.06;100.00;100212.75;4091230;28;20482;-72
2022/01/11 07:52:33;;;;;;;27.50;13.63;;;;;;;1.07;100.00;100208.13;4093153;28;20062;-72
2022/01/11 07:54:33;;;;;;;25.80;12.55;;;;;;;1.08;100.00;100209.78;4090787;28;20136;-72
2022/01/11 07:56:34;;;;;;;26.08;12.80;;;;;;;1.10;100.00;100205.69;4088893;28;20047;-72
2022/01/11 07:58:35;;;;;;;25.55;12.18;;;;;;;1.08;100.00;100207.06;4091603;28;20074;-72
2022/01/11 08:00:35;;;;;;;24.35;12.13;;;;;;;1.08;100.00;100207.88;4090021;28;20050;-72
2022/01/11 08:02:36;;;;;;;25.42;12.45;;;;;;;1.07;100.00;100211.66;4089214;28;20043;-71
2022/01/11 08:04:37;;;;;;;29.52;13.35;;;;;;;1.08;100.00;100217.97;4090557;28;20054;-72
2022/01/11 08:06:37;;;;;;;24.52;13.40;;;;;;;1.06;100.00;100207.31;4088446;28;20053;-72
2022/01/11 08:08:37;;;;;;;29.13;14.80;;;;;;;1.07;100.00;100216.28;4090264;28;20074;-72
2022/01/11 08:10:38;;;;;;;27.50;13.48;;;;;;;1.08;100.00;100210.59;4090046;28;20051;-72
2022/01/11 08:12:38;;;;;;;26.58;12.52;;;;;;;1.07;100.00;100208.94;4090414;28;20047;-72
2022/01/11 08:14:39;;;;;;;27.73;13.27;;;;;;;1.08;100.00;100212.50;4091126;28;20115;-72
2022/01/11 08:16:39;;;;;;;25.25;12.23;;;;;;;1.10;100.00;100227.50;4089143;28;20470;-72
2022/01/11 08:18:39;;;;;;;25.27;13.25;;;;;;;1.09;100.00;100214.13;4089647;28;20457;-72
2022/01/11 08:20:40;;;;;;;27.05;13.73;;;;;;;1.13;100.00;100226.13;4088662;28;20500;-72
2022/01/11 08:22:40;;;;;;;23.45;12.52;;;;;;;1.16;100.00;100230.19;4090564;28;20093;-72
2022/01/11 08:24:41;;;;;;;24.05;11.18;;;;;;;1.19;100.00;100229.66;4089965;28;20047;-72
2022/01/11 08:26:42;;;;;;;23.75;12.10;;;;;;;1.19;100.00;100229.66;4088215;28;20054;-72
2022/01/11 08:28:44;;;;;;;20.23;10.57;;;;;;;1.20;100.00;100234.03;4090535;28;21011;-72
2022/01/11 08:30:44;;;;;;;26.35;11.43;;;;;;;1.23;100.00;100233.47;4093176;28;20043;-72
2022/01/11 08:32:44;;;;;;;26.67;12.18;;;;;;;1.21;100.00;100228.28;4089977;28;20065;-72
2022/01/11 08:34:45;;;;;;;24.42;11.52;;;;;;;1.20;100.00;100223.94;4089837;28;20035;-72
2022/01/11 08:36:48;;;;;;;29.48;13.90;;;;;;;1.25;100.00;100229.41;4091094;28;20467;-72
2022/01/11 08:38:48;;;;;;;28.63;14.25;;;;;;;1.24;100.00;100235.94;4091036;28;20411;-71
2022/01/11 08:40:49;;;;;;;37.97;17.67;;;;;;;1.26;100.00;100241.13;4091975;28;20134;-72
2022/01/11 08:42:49;;;;;;;34.33;18.75;;;;;;;1.26;100.00;100236.47;4089472;28;20058;-72
2022/01/11 08:44:50;;;;;;;38.17;18.75;;;;;;;1.28;100.00;100238.94;4089598;28;20069;-72
2022/01/11 08:46:51;;;;;;;33.72;15.30;;;;;;;1.27;100.00;100245.47;4089261;28;20051;-72
2022/01/11 08:48:51;;;;;;;27.85;13.38;;;;;;;1.31;100.00;100243.81;4089314;28;20491;-72
2022/01/11 08:50:54;;;;;;;25.92;11.73;;;;;;;1.39;100.00;100241.34;4089857;28;20533;-72
2022/01/11 08:52:55;;;;;;;24.92;10.95;;;;;;;1.43;100.00;100238.09;4091449;28;20174;-72
2022/01/11 08:54:55;;;;;;;28.50;12.10;;;;;;;1.40;100.00;100243.00;4089073;28;20466;-72
2022/01/11 08:56:56;;;;;;;27.17;12.52;;;;;;;1.42;100.00;100247.38;4092866;28;20047;-72
2022/01/11 08:58:56;;;;;;;31.10;13.02;;;;;;;1.40;100.00;100243.00;4092428;28;20531;-72
2022/01/11 09:00:57;;;;;;;28.90;13.23;;;;;;;1.42;100.00;100244.66;4088948;28;20100;-72
2022/01/11 09:02:57;;;;;;;32.45;13.13;;;;;;;1.45;100.00;100249.56;4090023;28;20126;-72
2022/01/11 09:04:58;;;;;;;32.53;13.13;;;;;;;1.43;100.00;100244.38;4089255;28;20035;-72
2022/01/11 09:06:58;;;;;;;29.33;12.43;;;;;;;1.48;100.00;100244.34;4088448;28;20055;-72
2022/01/11 09:08:59;;;;;;;29.55;12.15;;;;;;;1.48;100.00;100240.81;4091980;28;20051;-72
2022/01/11 09:10:59;;;;;;;29.05;12.68;;;;;;;1.53;100.00;100247.09;4090712;28;20051;-72
2022/01/11 09:13:00;;;;;;;32.38;13.38;;;;;;;1.56;100.00;100240.25;4088335;28;20045;-72
2022/01/11 09:15:01;;;;;;;30.17;12.35;;;;;;;1.62;100.00;100241.88;4089858;28;20057;-72